sensor_id;sensor_type;location;lat;lon;timestamp;temperature;humidity
49124;DHT22;48506;48.202;16.274;2023-11-18T00:01:30;6.40;93.00
49124;DHT22;48506;48.202;16.274;2023-11-18T00:03:57;6.40;93.10
49124;DHT22;48506;48.202;16.274;2023-11-18T00:06:23;6.40;93.00
49124;DHT22;48506;48.202;16.274;2023-11-18T00:08:50;6.40;93.10
49124;DHT22;48506;48.202;16.274;2023-11-18T00:11:15;6.40;93.00
49124;DHT22;48506;48.202;16.274;2023-11-18T00:13:41;6.30;93.00
49124;DHT22;48506;48.202;16.274;2023-11-18T00:16:10;6.30;93.10
49124;DHT22;48506;48.202;16.274;2023-11-18T00:18:39;6.30;93.30
49124;DHT22;48506;48.202;16.274;2023-11-18T00:21:06;6.30;93.20
49124;DHT22;48506;48.202;16.274;2023-11-18T00:23:34;6.30;93.10
49124;DHT22;48506;48.202;16.274;2023-11-18T00:26:00;6.30;93.10
49124;DHT22;48506;48.202;16.274;2023-11-18T00:28:26;6.30;93.00
49124;DHT22;48506;48.202;16.274;2023-11-18T00:30:52;6.20;93.10
49124;DHT22;48506;48.202;16.274;2023-11-18T00:33:17;6.20;93.40
49124;DHT22;48506;48.202;16.274;2023-11-18T00:35:43;6.20;93.20
49124;DHT22;48506;48.202;16.274;2023-11-18T00:38:11;6.20;93.20
49124;DHT22;48506;48.202;16.274;2023-11-18T00:40:37;6.10;93.20
49124;DHT22;48506;48.202;16.274;2023-11-18T00:43:03;6.10;93.00
49124;DHT22;48506;48.202;16.274;2023-11-18T00:45:30;6.10;93.20
49124;DHT22;48506;48.202;16.274;2023-11-18T00:47:56;6.10;93.10
49124;DHT22;48506;48.202;16.274;2023-11-18T00:50:22;6.10;93.40
49124;DHT22;48506;48.202;16.274;2023-11-18T00:52:48;6.10;93.30
49124;DHT22;48506;48.202;16.274;2023-11-18T00:55:16;6.00;93.30
49124;DHT22;48506;48.202;16.274;2023-11-18T00:57:45;6.00;93.30
49124;DHT22;48506;48.202;16.274;2023-11-18T01:00:13;6.00;93.30
49124;DHT22;48506;48.202;16.274;2023-11-18T01:02:41;5.90;93.20
49124;DHT22;48506;48.202;16.274;2023-11-18T01:05:07;5.90;93.20
49124;DHT22;48506;48.202;16.274;2023-11-18T01:07:37;5.90;93.30
49124;DHT22;48506;48.202;16.274;2023-11-18T01:10:05;5.80;93.30
49124;DHT22;48506;48.202;16.274;2023-11-18T01:12:32;5.80;93.40
49124;DHT22;48506;48.202;16.274;2023-11-18T01:14:58;5.80;93.30
49124;DHT22;48506;48.202;16.274;2023-11-18T01:17:24;5.80;93.40
49124;DHT22;48506;48.202;16.274;2023-11-18T01:19:51;5.80;93.40
49124;DHT22;48506;48.202;16.274;2023-11-18T01:22:17;5.70;93.50
49124;DHT22;48506;48.202;16.274;2023-11-18T01:24:44;5.70;93.60
49124;DHT22;48506;48.202;16.274;2023-11-18T01:27:12;5.70;93.50
49124;DHT22;48506;48.202;16.274;2023-11-18T01:29:39;5.60;93.60
49124;DHT22;48506;48.202;16.274;2023-11-18T01:32:06;5.60;93.50
49124;DHT22;48506;48.202;16.274;2023-11-18T01:34:36;5.60;93.70
49124;DHT22;48506;48.202;16.274;2023-11-18T01:37:08;5.60;93.80
49124;DHT22;48506;48.202;16.274;2023-11-18T01:39:35;5.60;93.80
49124;DHT22;48506;48.202;16.274;2023-11-18T01:42:03;5.60;94.00
49124;DHT22;48506;48.202;16.274;2023-11-18T01:44:30;5.70;93.70
49124;DHT22;48506;48.202;16.274;2023-11-18T01:47:02;5.70;93.80
49124;DHT22;48506;48.202;16.274;2023-11-18T01:49:33;5.80;93.70
49124;DHT22;48506;48.202;16.274;2023-11-18T01:52:01;5.80;93.50
49124;DHT22;48506;48.202;16.274;2023-11-18T01:54:27;5.80;93.60
49124;DHT22;48506;48.202;16.274;2023-11-18T01:56:54;5.90;93.80
49124;DHT22;48506;48.202;16.274;2023-11-18T01:59:20;5.90;93.50
49124;DHT22;48506;48.202;16.274;2023-11-18T02:01:48;6.00;93.40
49124;DHT22;48506;48.202;16.274;2023-11-18T02:04:15;6.00;93.20
49124;DHT22;48506;48.202;16.274;2023-11-18T02:06:42;5.90;93.00
49124;DHT22;48506;48.202;16.274;2023-11-18T02:09:11;5.90;93.10
49124;DHT22;48506;48.202;16.274;2023-11-18T02:14:14;5.80;93.30
49124;DHT22;48506;48.202;16.274;2023-11-18T02:16:45;5.80;93.10
49124;DHT22;48506;48.202;16.274;2023-11-18T02:19:20;5.70;93.20
49124;DHT22;48506;48.202;16.274;2023-11-18T02:21:48;5.70;93.30
49124;DHT22;48506;48.202;16.274;2023-11-18T02:24:25;5.70;93.20
49124;DHT22;48506;48.202;16.274;2023-11-18T02:26:54;5.70;93.40
49124;DHT22;48506;48.202;16.274;2023-11-18T02:29:22;5.70;93.50
49124;DHT22;48506;48.202;16.274;2023-11-18T02:31:52;5.70;93.40
49124;DHT22;48506;48.202;16.274;2023-11-18T02:34:27;5.70;93.50
49124;DHT22;48506;48.202;16.274;2023-11-18T02:36:58;5.60;93.20
49124;DHT22;48506;48.202;16.274;2023-11-18T02:39:43;5.60;93.40
49124;DHT22;48506;48.202;16.274;2023-11-18T02:42:12;5.60;93.40
49124;DHT22;48506;48.202;16.274;2023-11-18T02:44:39;5.70;93.40
49124;DHT22;48506;48.202;16.274;2023-11-18T02:47:07;5.70;93.50
49124;DHT22;48506;48.202;16.274;2023-11-18T02:49:37;5.60;93.50
49124;DHT22;48506;48.202;16.274;2023-11-18T02:52:03;5.60;93.50
49124;DHT22;48506;48.202;16.274;2023-11-18T02:54:29;5.70;93.40
49124;DHT22;48506;48.202;16.274;2023-11-18T02:56:55;5.70;93.40
49124;DHT22;48506;48.202;16.274;2023-11-18T02:59:22;5.70;93.20
49124;DHT22;48506;48.202;16.274;2023-11-18T03:01:48;5.80;93.30
49124;DHT22;48506;48.202;16.274;2023-11-18T03:04:14;5.80;93.50
49124;DHT22;48506;48.202;16.274;2023-11-18T03:06:40;5.80;93.30
49124;DHT22;48506;48.202;16.274;2023-11-18T03:09:07;5.80;93.50
49124;DHT22;48506;48.202;16.274;2023-11-18T03:11:36;5.80;93.20
49124;DHT22;48506;48.202;16.274;2023-11-18T03:14:02;5.80;93.40
49124;DHT22;48506;48.202;16.274;2023-11-18T03:16:30;5.80;93.40
49124;DHT22;48506;48.202;16.274;2023-11-18T03:18:56;5.80;93.30
49124;DHT22;48506;48.202;16.274;2023-11-18T03:21:24;5.90;93.40
49124;DHT22;48506;48.202;16.274;2023-11-18T03:23:51;5.90;93.30
49124;DHT22;48506;48.202;16.274;2023-11-18T03:26:19;5.90;93.20
49124;DHT22;48506;48.202;16.274;2023-11-18T03:28:45;5.90;93.40
49124;DHT22;48506;48.202;16.274;2023-11-18T03:31:11;5.90;93.40
49124;DHT22;48506;48.202;16.274;2023-11-18T03:33:38;5.80;93.30
49124;DHT22;48506;48.202;16.274;2023-11-18T03:36:04;5.80;93.10
49124;DHT22;48506;48.202;16.274;2023-11-18T03:38:30;5.90;93.00
49124;DHT22;48506;48.202;16.274;2023-11-18T03:40:57;5.90;92.80
49124;DHT22;48506;48.202;16.274;2023-11-18T03:43:24;5.90;93.00
49124;DHT22;48506;48.202;16.274;2023-11-18T03:45:51;5.90;93.00
49124;DHT22;48506;48.202;16.274;2023-11-18T03:48:23;5.90;92.90
49124;DHT22;48506;48.202;16.274;2023-11-18T03:50:50;5.90;92.80
49124;DHT22;48506;48.202;16.274;2023-11-18T03:53:16;5.90;93.20
49124;DHT22;48506;48.202;16.274;2023-11-18T03:55:42;5.80;93.00
49124;DHT22;48506;48.202;16.274;2023-11-18T03:58:08;5.80;93.00
49124;DHT22;48506;48.202;16.274;2023-11-18T04:00:34;5.80;93.10
49124;DHT22;48506;48.202;16.274;2023-11-18T04:03:00;5.80;93.20
49124;DHT22;48506;48.202;16.274;2023-11-18T04:05:27;5.90;93.10
49124;DHT22;48506;48.202;16.274;2023-11-18T04:07:53;5.90;93.20
49124;DHT22;48506;48.202;16.274;2023-11-18T04:10:18;5.90;93.20
49124;DHT22;48506;48.202;16.274;2023-11-18T04:12:46;5.90;93.10
49124;DHT22;48506;48.202;16.274;2023-11-18T04:15:14;5.90;93.20
49124;DHT22;48506;48.202;16.274;2023-11-18T04:17:43;5.80;93.30
49124;DHT22;48506;48.202;16.274;2023-11-18T04:20:11;5.90;93.30
49124;DHT22;48506;48.202;16.274;2023-11-18T04:22:41;5.80;93.20
49124;DHT22;48506;48.202;16.274;2023-11-18T04:25:08;5.80;93.40
49124;DHT22;48506;48.202;16.274;2023-11-18T04:27:39;5.80;93.60
49124;DHT22;48506;48.202;16.274;2023-11-18T04:30:06;5.80;93.50
49124;DHT22;48506;48.202;16.274;2023-11-18T04:32:36;5.80;93.30
49124;DHT22;48506;48.202;16.274;2023-11-18T04:35:02;5.80;93.40
49124;DHT22;48506;48.202;16.274;2023-11-18T04:37:34;5.80;93.40
49124;DHT22;48506;48.202;16.274;2023-11-18T04:40:01;5.90;93.30
49124;DHT22;48506;48.202;16.274;2023-11-18T04:42:28;5.90;93.50
49124;DHT22;48506;48.202;16.274;2023-11-18T04:44:58;6.00;93.30
49124;DHT22;48506;48.202;16.274;2023-11-18T04:47:24;6.00;93.10
49124;DHT22;48506;48.202;16.274;2023-11-18T04:49:53;6.00;93.10
49124;DHT22;48506;48.202;16.274;2023-11-18T04:52:19;6.00;93.20
49124;DHT22;48506;48.202;16.274;2023-11-18T04:54:46;6.00;93.20
49124;DHT22;48506;48.202;16.274;2023-11-18T04:57:15;6.00;93.10
49124;DHT22;48506;48.202;16.274;2023-11-18T04:59:44;6.00;93.00
49124;DHT22;48506;48.202;16.274;2023-11-18T05:02:10;6.10;93.00
49124;DHT22;48506;48.202;16.274;2023-11-18T05:04:36;6.00;93.10
49124;DHT22;48506;48.202;16.274;2023-11-18T05:07:02;6.10;93.20
49124;DHT22;48506;48.202;16.274;2023-11-18T05:09:30;6.10;93.40
49124;DHT22;48506;48.202;16.274;2023-11-18T05:11:58;6.10;93.10
49124;DHT22;48506;48.202;16.274;2023-11-18T05:14:25;6.20;93.00
49124;DHT22;48506;48.202;16.274;2023-11-18T05:16:52;6.10;93.10
49124;DHT22;48506;48.202;16.274;2023-11-18T05:19:18;6.10;93.20
49124;DHT22;48506;48.202;16.274;2023-11-18T05:21:44;6.10;93.30
49124;DHT22;48506;48.202;16.274;2023-11-18T05:24:15;6.20;93.00
49124;DHT22;48506;48.202;16.274;2023-11-18T05:26:41;6.10;93.00
49124;DHT22;48506;48.202;16.274;2023-11-18T05:29:07;6.10;93.10
49124;DHT22;48506;48.202;16.274;2023-11-18T05:31:33;6.10;93.10
49124;DHT22;48506;48.202;16.274;2023-11-18T05:33:59;6.10;93.10
49124;DHT22;48506;48.202;16.274;2023-11-18T05:36:26;6.10;93.20
49124;DHT22;48506;48.202;16.274;2023-11-18T05:38:54;6.00;93.20
49124;DHT22;48506;48.202;16.274;2023-11-18T05:41:20;6.00;93.20
49124;DHT22;48506;48.202;16.274;2023-11-18T05:43:54;5.90;93.40
49124;DHT22;48506;48.202;16.274;2023-11-18T05:46:23;5.90;93.30
49124;DHT22;48506;48.202;16.274;2023-11-18T05:48:55;5.90;93.20
49124;DHT22;48506;48.202;16.274;2023-11-18T05:51:24;5.90;93.50
49124;DHT22;48506;48.202;16.274;2023-11-18T05:53:52;6.00;93.50
49124;DHT22;48506;48.202;16.274;2023-11-18T05:56:19;5.90;93.30
49124;DHT22;48506;48.202;16.274;2023-11-18T05:58:45;6.00;93.30
49124;DHT22;48506;48.202;16.274;2023-11-18T06:01:12;5.90;93.30
49124;DHT22;48506;48.202;16.274;2023-11-18T06:03:39;6.00;93.40
49124;DHT22;48506;48.202;16.274;2023-11-18T06:06:10;6.00;93.00
49124;DHT22;48506;48.202;16.274;2023-11-18T06:08:38;6.00;93.10
49124;DHT22;48506;48.202;16.274;2023-11-18T06:11:11;5.90;93.10
49124;DHT22;48506;48.202;16.274;2023-11-18T06:13:49;6.00;93.10
49124;DHT22;48506;48.202;16.274;2023-11-18T06:16:18;6.00;93.20
49124;DHT22;48506;48.202;16.274;2023-11-18T06:18:50;6.00;93.00
49124;DHT22;48506;48.202;16.274;2023-11-18T06:21:18;6.00;93.20
49124;DHT22;48506;48.202;16.274;2023-11-18T06:23:47;6.10;93.20
49124;DHT22;48506;48.202;16.274;2023-11-18T06:26:14;6.10;93.30
49124;DHT22;48506;48.202;16.274;2023-11-18T06:28:42;6.00;93.20
49124;DHT22;48506;48.202;16.274;2023-11-18T06:31:09;6.10;93.40
49124;DHT22;48506;48.202;16.274;2023-11-18T06:33:43;6.10;93.20
49124;DHT22;48506;48.202;16.274;2023-11-18T06:36:17;6.00;93.30
49124;DHT22;48506;48.202;16.274;2023-11-18T06:38:44;6.10;93.60
49124;DHT22;48506;48.202;16.274;2023-11-18T06:41:12;6.10;93.30
49124;DHT22;48506;48.202;16.274;2023-11-18T06:43:43;6.10;93.50
49124;DHT22;48506;48.202;16.274;2023-11-18T06:46:32;6.10;93.30
49124;DHT22;48506;48.202;16.274;2023-11-18T06:49:00;6.10;93.60
49124;DHT22;48506;48.202;16.274;2023-11-18T06:51:33;6.10;93.60
49124;DHT22;48506;48.202;16.274;2023-11-18T06:54:05;6.10;93.40
49124;DHT22;48506;48.202;16.274;2023-11-18T06:56:36;6.10;93.20
49124;DHT22;48506;48.202;16.274;2023-11-18T06:59:08;6.20;93.30
49124;DHT22;48506;48.202;16.274;2023-11-18T07:01:39;6.20;93.60
49124;DHT22;48506;48.202;16.274;2023-11-18T07:04:11;6.30;93.50
49124;DHT22;48506;48.202;16.274;2023-11-18T07:06:37;6.30;93.30
49124;DHT22;48506;48.202;16.274;2023-11-18T07:09:08;6.30;93.30
49124;DHT22;48506;48.202;16.274;2023-11-18T07:11:44;6.40;93.00
49124;DHT22;48506;48.202;16.274;2023-11-18T07:14:11;6.30;93.20
49124;DHT22;48506;48.202;16.274;2023-11-18T07:16:39;6.30;93.00
49124;DHT22;48506;48.202;16.274;2023-11-18T07:19:06;6.30;93.10
49124;DHT22;48506;48.202;16.274;2023-11-18T07:21:31;6.30;92.90
49124;DHT22;48506;48.202;16.274;2023-11-18T07:24:00;6.30;93.00
49124;DHT22;48506;48.202;16.274;2023-11-18T07:26:27;6.30;93.10
49124;DHT22;48506;48.202;16.274;2023-11-18T07:28:54;6.30;93.10
49124;DHT22;48506;48.202;16.274;2023-11-18T07:31:20;6.30;93.10
49124;DHT22;48506;48.202;16.274;2023-11-18T07:33:47;6.40;92.80
49124;DHT22;48506;48.202;16.274;2023-11-18T07:36:17;6.30;93.00
49124;DHT22;48506;48.202;16.274;2023-11-18T07:38:46;6.40;92.90
49124;DHT22;48506;48.202;16.274;2023-11-18T07:41:13;6.40;92.80
49124;DHT22;48506;48.202;16.274;2023-11-18T07:43:53;6.40;92.80
49124;DHT22;48506;48.202;16.274;2023-11-18T07:46:23;6.40;92.80
49124;DHT22;48506;48.202;16.274;2023-11-18T07:48:50;6.40;93.00
49124;DHT22;48506;48.202;16.274;2023-11-18T07:51:20;6.40;92.70
49124;DHT22;48506;48.202;16.274;2023-11-18T07:53:51;6.40;92.80
49124;DHT22;48506;48.202;16.274;2023-11-18T07:56:17;6.50;93.10
49124;DHT22;48506;48.202;16.274;2023-11-18T07:58:43;6.50;92.80
49124;DHT22;48506;48.202;16.274;2023-11-18T08:01:13;6.50;92.80
49124;DHT22;48506;48.202;16.274;2023-11-18T08:03:42;6.50;92.90
49124;DHT22;48506;48.202;16.274;2023-11-18T08:06:08;6.50;93.40
49124;DHT22;48506;48.202;16.274;2023-11-18T08:08:36;6.60;93.00
49124;DHT22;48506;48.202;16.274;2023-11-18T08:11:05;6.60;92.90
49124;DHT22;48506;48.202;16.274;2023-11-18T08:13:32;6.60;93.00
49124;DHT22;48506;48.202;16.274;2023-11-18T08:15:58;6.60;93.20
49124;DHT22;48506;48.202;16.274;2023-11-18T08:18:24;6.70;93.10
49124;DHT22;48506;48.202;16.274;2023-11-18T08:20:50;6.70;93.20
49124;DHT22;48506;48.202;16.274;2023-11-18T08:23:17;6.80;93.00
49124;DHT22;48506;48.202;16.274;2023-11-18T08:25:45;6.80;93.00
49124;DHT22;48506;48.202;16.274;2023-11-18T08:28:12;6.80;93.00
49124;DHT22;48506;48.202;16.274;2023-11-18T08:30:40;6.80;93.10
49124;DHT22;48506;48.202;16.274;2023-11-18T08:33:06;6.80;93.10
49124;DHT22;48506;48.202;16.274;2023-11-18T08:35:36;6.90;93.10
49124;DHT22;48506;48.202;16.274;2023-11-18T08:38:03;6.90;93.00
49124;DHT22;48506;48.202;16.274;2023-11-18T08:40:30;7.00;93.20
49124;DHT22;48506;48.202;16.274;2023-11-18T08:42:56;7.10;93.20
49124;DHT22;48506;48.202;16.274;2023-11-18T08:45:27;7.10;92.90
49124;DHT22;48506;48.202;16.274;2023-11-18T08:47:56;7.30;92.80
49124;DHT22;48506;48.202;16.274;2023-11-18T08:50:23;7.30;92.90
49124;DHT22;48506;48.202;16.274;2023-11-18T08:52:50;7.30;92.40
49124;DHT22;48506;48.202;16.274;2023-11-18T08:55:24;7.30;92.60
49124;DHT22;48506;48.202;16.274;2023-11-18T08:58:09;7.30;92.50
49124;DHT22;48506;48.202;16.274;2023-11-18T09:01:06;7.30;92.50
49124;DHT22;48506;48.202;16.274;2023-11-18T09:03:39;7.30;92.80
49124;DHT22;48506;48.202;16.274;2023-11-18T09:06:18;7.30;92.70
49124;DHT22;48506;48.202;16.274;2023-11-18T09:08:48;7.40;92.60
49124;DHT22;48506;48.202;16.274;2023-11-18T09:11:22;7.40;92.50
49124;DHT22;48506;48.202;16.274;2023-11-18T09:13:49;7.40;92.50
49124;DHT22;48506;48.202;16.274;2023-11-18T09:16:21;7.60;92.70
49124;DHT22;48506;48.202;16.274;2023-11-18T09:18:56;7.80;92.50
49124;DHT22;48506;48.202;16.274;2023-11-18T09:21:25;7.90;92.10
49124;DHT22;48506;48.202;16.274;2023-11-18T09:23:54;8.00;91.90
49124;DHT22;48506;48.202;16.274;2023-11-18T09:26:22;8.00;91.90
49124;DHT22;48506;48.202;16.274;2023-11-18T09:28:48;8.00;91.70
49124;DHT22;48506;48.202;16.274;2023-11-18T09:31:16;8.00;91.40
49124;DHT22;48506;48.202;16.274;2023-11-18T09:33:43;8.00;91.90
49124;DHT22;48506;48.202;16.274;2023-11-18T09:36:18;7.90;91.50
49124;DHT22;48506;48.202;16.274;2023-11-18T09:38:45;8.00;91.80
49124;DHT22;48506;48.202;16.274;2023-11-18T09:41:23;8.10;91.70
49124;DHT22;48506;48.202;16.274;2023-11-18T09:43:53;8.10;91.50
49124;DHT22;48506;48.202;16.274;2023-11-18T09:46:26;8.10;91.60
49124;DHT22;48506;48.202;16.274;2023-11-18T09:49:01;8.20;91.60
49124;DHT22;48506;48.202;16.274;2023-11-18T09:51:42;8.10;91.40
49124;DHT22;48506;48.202;16.274;2023-11-18T09:54:36;8.20;91.80
49124;DHT22;48506;48.202;16.274;2023-11-18T09:57:27;8.30;91.70
49124;DHT22;48506;48.202;16.274;2023-11-18T10:00:04;8.30;91.90
49124;DHT22;48506;48.202;16.274;2023-11-18T10:02:50;8.30;92.00
49124;DHT22;48506;48.202;16.274;2023-11-18T10:05:16;8.30;91.90
49124;DHT22;48506;48.202;16.274;2023-11-18T10:07:47;8.40;91.40
49124;DHT22;48506;48.202;16.274;2023-11-18T10:10:14;8.30;91.80
49124;DHT22;48506;48.202;16.274;2023-11-18T10:12:48;8.30;91.70
49124;DHT22;48506;48.202;16.274;2023-11-18T10:15:30;8.20;91.90
49124;DHT22;48506;48.202;16.274;2023-11-18T10:17:57;8.20;91.70
49124;DHT22;48506;48.202;16.274;2023-11-18T10:20:51;8.20;91.60
49124;DHT22;48506;48.202;16.274;2023-11-18T10:23:19;8.10;92.30
49124;DHT22;48506;48.202;16.274;2023-11-18T10:25:54;8.10;92.30
49124;DHT22;48506;48.202;16.274;2023-11-18T10:30:50;8.00;92.00
49124;DHT22;48506;48.202;16.274;2023-11-18T10:33:19;8.00;92.10
49124;DHT22;48506;48.202;16.274;2023-11-18T10:35:49;7.90;92.10
49124;DHT22;48506;48.202;16.274;2023-11-18T10:38:22;7.90;92.40
49124;DHT22;48506;48.202;16.274;2023-11-18T10:40:59;8.00;92.40
49124;DHT22;48506;48.202;16.274;2023-11-18T10:43:28;8.00;92.40
49124;DHT22;48506;48.202;16.274;2023-11-18T10:46:09;8.00;92.30
49124;DHT22;48506;48.202;16.274;2023-11-18T10:48:46;7.90;92.30
49124;DHT22;48506;48.202;16.274;2023-11-18T10:51:14;7.90;92.60
49124;DHT22;48506;48.202;16.274;2023-11-18T10:53:43;7.90;92.50
49124;DHT22;48506;48.202;16.274;2023-11-18T10:56:20;7.90;92.20
49124;DHT22;48506;48.202;16.274;2023-11-18T10:58:50;7.90;92.50
49124;DHT22;48506;48.202;16.274;2023-11-18T11:01:28;8.00;92.40
49124;DHT22;48506;48.202;16.274;2023-11-18T11:03:55;8.00;92.40
49124;DHT22;48506;48.202;16.274;2023-11-18T11:06:26;8.10;92.70
49124;DHT22;48506;48.202;16.274;2023-11-18T11:08:57;8.30;92.30
49124;DHT22;48506;48.202;16.274;2023-11-18T11:11:36;8.30;92.00
49124;DHT22;48506;48.202;16.274;2023-11-18T11:14:03;8.30;92.10
49124;DHT22;48506;48.202;16.274;2023-11-18T11:16:41;8.20;91.90
49124;DHT22;48506;48.202;16.274;2023-11-18T11:19:34;8.20;92.10
49124;DHT22;48506;48.202;16.274;2023-11-18T11:22:10;8.10;92.10
49124;DHT22;48506;48.202;16.274;2023-11-18T11:27:54;8.50;92.30
49124;DHT22;48506;48.202;16.274;2023-11-18T11:30:38;8.70;91.90
49124;DHT22;48506;48.202;16.274;2023-11-18T11:33:33;8.90;91.80
49124;DHT22;48506;48.202;16.274;2023-11-18T11:36:12;9.30;91.50
49124;DHT22;48506;48.202;16.274;2023-11-18T11:38:42;9.80;90.10
49124;DHT22;48506;48.202;16.274;2023-11-18T11:41:14;10.00;90.10
49124;DHT22;48506;48.202;16.274;2023-11-18T11:43:48;10.00;89.70
49124;DHT22;48506;48.202;16.274;2023-11-18T11:46:16;10.10;90.10
49124;DHT22;48506;48.202;16.274;2023-11-18T11:48:52;10.10;88.90
49124;DHT22;48506;48.202;16.274;2023-11-18T11:51:43;10.20;88.30
49124;DHT22;48506;48.202;16.274;2023-11-18T11:54:11;10.00;88.30
49124;DHT22;48506;48.202;16.274;2023-11-18T11:56:47;9.80;87.40
49124;DHT22;48506;48.202;16.274;2023-11-18T11:59:53;9.60;88.50
49124;DHT22;48506;48.202;16.274;2023-11-18T12:02:23;9.40;88.80
49124;DHT22;48506;48.202;16.274;2023-11-18T12:04:52;9.30;90.20
49124;DHT22;48506;48.202;16.274;2023-11-18T12:07:20;9.20;90.10
49124;DHT22;48506;48.202;16.274;2023-11-18T12:09:50;9.20;90.10
49124;DHT22;48506;48.202;16.274;2023-11-18T12:12:23;9.10;90.00
49124;DHT22;48506;48.202;16.274;2023-11-18T12:14:59;8.90;90.20
49124;DHT22;48506;48.202;16.274;2023-11-18T12:20:40;8.70;90.90
49124;DHT22;48506;48.202;16.274;2023-11-18T12:23:08;8.80;91.20
49124;DHT22;48506;48.202;16.274;2023-11-18T12:25:41;8.80;90.80
49124;DHT22;48506;48.202;16.274;2023-11-18T12:28:14;8.70;90.90
49124;DHT22;48506;48.202;16.274;2023-11-18T12:30:45;8.70;91.00
49124;DHT22;48506;48.202;16.274;2023-11-18T12:33:19;8.70;91.10
49124;DHT22;48506;48.202;16.274;2023-11-18T12:38:30;8.60;90.90
49124;DHT22;48506;48.202;16.274;2023-11-18T12:41:38;8.50;91.10
49124;DHT22;48506;48.202;16.274;2023-11-18T12:44:30;8.40;91.00
49124;DHT22;48506;48.202;16.274;2023-11-18T12:47:06;8.40;91.30
49124;DHT22;48506;48.202;16.274;2023-11-18T12:49:47;8.40;91.60
49124;DHT22;48506;48.202;16.274;2023-11-18T12:52:26;8.40;91.00
49124;DHT22;48506;48.202;16.274;2023-11-18T12:54:54;8.40;91.60
49124;DHT22;48506;48.202;16.274;2023-11-18T12:57:28;8.50;91.30
49124;DHT22;48506;48.202;16.274;2023-11-18T12:59:57;8.50;91.00
49124;DHT22;48506;48.202;16.274;2023-11-18T13:02:23;8.50;90.90
49124;DHT22;48506;48.202;16.274;2023-11-18T13:04:50;8.50;91.00
49124;DHT22;48506;48.202;16.274;2023-11-18T13:07:21;8.50;91.00
49124;DHT22;48506;48.202;16.274;2023-11-18T13:09:47;8.50;91.00
49124;DHT22;48506;48.202;16.274;2023-11-18T13:12:14;8.50;90.70
49124;DHT22;48506;48.202;16.274;2023-11-18T13:14:42;8.50;90.50
49124;DHT22;48506;48.202;16.274;2023-11-18T13:17:10;8.50;90.20
49124;DHT22;48506;48.202;16.274;2023-11-18T13:19:42;8.50;90.30
49124;DHT22;48506;48.202;16.274;2023-11-18T13:22:10;8.50;89.50
49124;DHT22;48506;48.202;16.274;2023-11-18T13:24:41;8.50;89.80
49124;DHT22;48506;48.202;16.274;2023-11-18T13:27:14;8.40;89.70
49124;DHT22;48506;48.202;16.274;2023-11-18T13:29:47;8.40;89.50
49124;DHT22;48506;48.202;16.274;2023-11-18T13:32:19;8.30;88.80
49124;DHT22;48506;48.202;16.274;2023-11-18T13:34:51;8.30;88.50
49124;DHT22;48506;48.202;16.274;2023-11-18T13:37:18;8.20;88.80
49124;DHT22;48506;48.202;16.274;2023-11-18T13:39:57;8.20;88.80
49124;DHT22;48506;48.202;16.274;2023-11-18T13:42:27;8.20;89.70
49124;DHT22;48506;48.202;16.274;2023-11-18T13:45:04;8.10;88.30
49124;DHT22;48506;48.202;16.274;2023-11-18T13:47:34;8.10;89.20
49124;DHT22;48506;48.202;16.274;2023-11-18T13:50:07;8.00;89.20
49124;DHT22;48506;48.202;16.274;2023-11-18T13:52:34;8.00;89.00
49124;DHT22;48506;48.202;16.274;2023-11-18T13:55:01;8.00;89.40
49124;DHT22;48506;48.202;16.274;2023-11-18T13:57:31;8.00;89.20
49124;DHT22;48506;48.202;16.274;2023-11-18T13:59:57;8.00;90.00
49124;DHT22;48506;48.202;16.274;2023-11-18T14:02:23;8.00;89.10
49124;DHT22;48506;48.202;16.274;2023-11-18T14:04:50;8.00;89.80
49124;DHT22;48506;48.202;16.274;2023-11-18T14:07:16;8.10;90.00
49124;DHT22;48506;48.202;16.274;2023-11-18T14:09:44;8.10;90.20
49124;DHT22;48506;48.202;16.274;2023-11-18T14:12:13;8.10;90.10
49124;DHT22;48506;48.202;16.274;2023-11-18T14:14:39;8.10;90.10
49124;DHT22;48506;48.202;16.274;2023-11-18T14:17:06;8.10;89.10
49124;DHT22;48506;48.202;16.274;2023-11-18T14:19:33;8.10;87.90
49124;DHT22;48506;48.202;16.274;2023-11-18T14:22:01;8.00;88.30
49124;DHT22;48506;48.202;16.274;2023-11-18T14:24:29;8.00;88.90
49124;DHT22;48506;48.202;16.274;2023-11-18T14:26:57;8.00;88.10
49124;DHT22;48506;48.202;16.274;2023-11-18T14:29:24;8.30;87.20
49124;DHT22;48506;48.202;16.274;2023-11-18T14:31:50;8.80;85.30
49124;DHT22;48506;48.202;16.274;2023-11-18T14:34:17;9.00;84.40
49124;DHT22;48506;48.202;16.274;2023-11-18T14:36:43;8.90;84.30
49124;DHT22;48506;48.202;16.274;2023-11-18T14:39:11;8.90;84.50
49124;DHT22;48506;48.202;16.274;2023-11-18T14:41:39;8.80;83.40
49124;DHT22;48506;48.202;16.274;2023-11-18T14:44:06;8.60;83.90
49124;DHT22;48506;48.202;16.274;2023-11-18T14:46:35;8.40;84.00
49124;DHT22;48506;48.202;16.274;2023-11-18T14:49:07;8.30;84.70
49124;DHT22;48506;48.202;16.274;2023-11-18T14:51:33;8.20;84.90
49124;DHT22;48506;48.202;16.274;2023-11-18T14:54:00;8.10;85.00
49124;DHT22;48506;48.202;16.274;2023-11-18T14:56:26;8.00;85.00
49124;DHT22;48506;48.202;16.274;2023-11-18T14:58:52;8.00;85.00
49124;DHT22;48506;48.202;16.274;2023-11-18T15:01:18;8.00;86.10
49124;DHT22;48506;48.202;16.274;2023-11-18T15:03:45;8.00;85.50
49124;DHT22;48506;48.202;16.274;2023-11-18T15:06:13;7.90;85.10
49124;DHT22;48506;48.202;16.274;2023-11-18T15:08:42;7.80;85.50
49124;DHT22;48506;48.202;16.274;2023-11-18T15:11:09;7.80;85.30
49124;DHT22;48506;48.202;16.274;2023-11-18T15:13:35;7.70;84.60
49124;DHT22;48506;48.202;16.274;2023-11-18T15:16:03;7.70;83.70
49124;DHT22;48506;48.202;16.274;2023-11-18T15:18:29;7.60;83.70
49124;DHT22;48506;48.202;16.274;2023-11-18T15:20:56;7.60;84.40
49124;DHT22;48506;48.202;16.274;2023-11-18T15:23:22;7.60;83.20
49124;DHT22;48506;48.202;16.274;2023-11-18T15:25:49;7.60;83.50
49124;DHT22;48506;48.202;16.274;2023-11-18T15:28:18;7.60;83.40
49124;DHT22;48506;48.202;16.274;2023-11-18T15:30:45;7.50;83.30
49124;DHT22;48506;48.202;16.274;2023-11-18T15:33:11;7.50;83.00
49124;DHT22;48506;48.202;16.274;2023-11-18T15:35:41;7.50;83.90
49124;DHT22;48506;48.202;16.274;2023-11-18T15:38:08;7.50;83.60
49124;DHT22;48506;48.202;16.274;2023-11-18T15:40:37;7.40;83.70
49124;DHT22;48506;48.202;16.274;2023-11-18T15:43:04;7.40;82.90
49124;DHT22;48506;48.202;16.274;2023-11-18T15:45:33;7.40;83.40
49124;DHT22;48506;48.202;16.274;2023-11-18T15:48:01;7.40;83.60
49124;DHT22;48506;48.202;16.274;2023-11-18T15:50:31;7.30;83.30
49124;DHT22;48506;48.202;16.274;2023-11-18T15:52:57;7.30;82.30
49124;DHT22;48506;48.202;16.274;2023-11-18T15:55:24;7.30;83.00
49124;DHT22;48506;48.202;16.274;2023-11-18T15:57:52;7.30;83.20
49124;DHT22;48506;48.202;16.274;2023-11-18T16:00:19;7.20;83.80